sensor_id;sensor_type;location;lat;lon;timestamp;temperature;humidity
50162;DHT22;36061;48.116;11.612;2023-10-09T00:01:43;14.90;99.90
50162;DHT22;36061;48.116;11.612;2023-10-09T00:04:12;14.80;99.90
50162;DHT22;36061;48.116;11.612;2023-10-09T00:06:41;14.80;99.90
50162;DHT22;36061;48.116;11.612;2023-10-09T00:09:10;14.80;99.90
50162;DHT22;36061;48.116;11.612;2023-10-09T00:11:44;14.80;99.90
50162;DHT22;36061;48.116;11.612;2023-10-09T00:14:12;14.80;99.90
50162;DHT22;36061;48.116;11.612;2023-10-09T00:16:41;14.80;99.90
50162;DHT22;36061;48.116;11.612;2023-10-09T00:19:13;14.80;99.90
50162;DHT22;36061;48.116;11.612;2023-10-09T00:21:45;14.70;99.90
50162;DHT22;36061;48.116;11.612;2023-10-09T00:24:13;14.70;99.90
50162;DHT22;36061;48.116;11.612;2023-10-09T00:26:43;14.70;99.90
50162;DHT22;36061;48.116;11.612;2023-10-09T00:29:12;14.70;99.90
50162;DHT22;36061;48.116;11.612;2023-10-09T00:31:49;14.70;99.90
50162;DHT22;36061;48.116;11.612;2023-10-09T00:34:29;14.70;99.90
50162;DHT22;36061;48.116;11.612;2023-10-09T00:37:07;14.70;99.90
50162;DHT22;36061;48.116;11.612;2023-10-09T00:39:36;14.70;99.90
50162;DHT22;36061;48.116;11.612;2023-10-09T00:42:10;14.70;99.90
50162;DHT22;36061;48.116;11.612;2023-10-09T00:44:41;14.70;99.90
50162;DHT22;36061;48.116;11.612;2023-10-09T00:47:12;14.60;99.90
50162;DHT22;36061;48.116;11.612;2023-10-09T00:49:54;14.70;99.90
50162;DHT22;36061;48.116;11.612;2023-10-09T00:52:29;14.70;99.90
50162;DHT22;36061;48.116;11.612;2023-10-09T00:55:04;14.70;99.90
50162;DHT22;36061;48.116;11.612;2023-10-09T00:57:41;14.70;99.90
50162;DHT22;36061;48.116;11.612;2023-10-09T01:00:14;14.70;99.90
50162;DHT22;36061;48.116;11.612;2023-10-09T01:02:59;14.70;99.90
50162;DHT22;36061;48.116;11.612;2023-10-09T01:05:46;14.60;99.90
50162;DHT22;36061;48.116;11.612;2023-10-09T01:08:20;14.70;99.90
50162;DHT22;36061;48.116;11.612;2023-10-09T01:10:55;14.70;99.90
50162;DHT22;36061;48.116;11.612;2023-10-09T01:13:25;14.70;99.90
50162;DHT22;36061;48.116;11.612;2023-10-09T01:16:06;14.70;99.90
50162;DHT22;36061;48.116;11.612;2023-10-09T01:18:35;14.70;99.90
50162;DHT22;36061;48.116;11.612;2023-10-09T01:21:06;14.70;99.90
50162;DHT22;36061;48.116;11.612;2023-10-09T01:23:35;14.70;99.90
50162;DHT22;36061;48.116;11.612;2023-10-09T01:26:24;14.70;99.90
50162;DHT22;36061;48.116;11.612;2023-10-09T01:28:52;14.70;99.90
50162;DHT22;36061;48.116;11.612;2023-10-09T01:31:24;14.70;99.90
50162;DHT22;36061;48.116;11.612;2023-10-09T01:33:52;14.70;99.90
50162;DHT22;36061;48.116;11.612;2023-10-09T01:36:25;14.70;99.90
50162;DHT22;36061;48.116;11.612;2023-10-09T01:39:00;14.70;99.90
50162;DHT22;36061;48.116;11.612;2023-10-09T01:41:33;14.70;99.90
50162;DHT22;36061;48.116;11.612;2023-10-09T01:44:01;14.70;99.90
50162;DHT22;36061;48.116;11.612;2023-10-09T01:46:36;14.70;99.90
50162;DHT22;36061;48.116;11.612;2023-10-09T01:49:03;14.70;99.90
50162;DHT22;36061;48.116;11.612;2023-10-09T01:51:42;14.70;99.90
50162;DHT22;36061;48.116;11.612;2023-10-09T01:54:10;14.80;99.90
50162;DHT22;36061;48.116;11.612;2023-10-09T01:56:53;14.80;99.90
50162;DHT22;36061;48.116;11.612;2023-10-09T01:59:22;14.80;99.90
50162;DHT22;36061;48.116;11.612;2023-10-09T02:01:50;14.80;99.90
50162;DHT22;36061;48.116;11.612;2023-10-09T02:04:20;14.80;99.90
50162;DHT22;36061;48.116;11.612;2023-10-09T02:06:47;14.80;99.90
50162;DHT22;36061;48.116;11.612;2023-10-09T02:09:19;14.70;99.90
50162;DHT22;36061;48.116;11.612;2023-10-09T02:11:54;14.70;99.90
50162;DHT22;36061;48.116;11.612;2023-10-09T02:14:23;14.70;99.90
50162;DHT22;36061;48.116;11.612;2023-10-09T02:16:51;14.70;99.90
50162;DHT22;36061;48.116;11.612;2023-10-09T02:19:34;14.70;99.90
50162;DHT22;36061;48.116;11.612;2023-10-09T02:22:02;14.70;99.90
50162;DHT22;36061;48.116;11.612;2023-10-09T02:24:40;14.70;99.90
50162;DHT22;36061;48.116;11.612;2023-10-09T02:27:25;14.70;99.90
50162;DHT22;36061;48.116;11.612;2023-10-09T02:30:12;14.70;99.90
50162;DHT22;36061;48.116;11.612;2023-10-09T02:32:45;14.70;99.90
50162;DHT22;36061;48.116;11.612;2023-10-09T02:35:19;14.70;99.90
50162;DHT22;36061;48.116;11.612;2023-10-09T02:38:03;14.60;99.90
50162;DHT22;36061;48.116;11.612;2023-10-09T02:40:34;14.60;99.90
50162;DHT22;36061;48.116;11.612;2023-10-09T02:43:19;14.60;99.90
50162;DHT22;36061;48.116;11.612;2023-10-09T02:45:47;14.60;99.90
50162;DHT22;36061;48.116;11.612;2023-10-09T02:48:17;14.60;99.90
50162;DHT22;36061;48.116;11.612;2023-10-09T02:50:46;14.50;99.90
50162;DHT22;36061;48.116;11.612;2023-10-09T02:53:16;14.50;99.90
50162;DHT22;36061;48.116;11.612;2023-10-09T02:55:56;14.60;99.90
50162;DHT22;36061;48.116;11.612;2023-10-09T02:58:39;14.50;99.90
50162;DHT22;36061;48.116;11.612;2023-10-09T03:01:10;14.60;99.90
50162;DHT22;36061;48.116;11.612;2023-10-09T03:03:40;14.50;99.90
50162;DHT22;36061;48.116;11.612;2023-10-09T03:06:11;14.50;99.90
50162;DHT22;36061;48.116;11.612;2023-10-09T03:08:38;14.50;99.90
50162;DHT22;36061;48.116;11.612;2023-10-09T03:11:09;14.50;99.90
50162;DHT22;36061;48.116;11.612;2023-10-09T03:13:41;14.50;99.90
50162;DHT22;36061;48.116;11.612;2023-10-09T03:16:11;14.50;99.90
50162;DHT22;36061;48.116;11.612;2023-10-09T03:18:46;14.50;99.90
50162;DHT22;36061;48.116;11.612;2023-10-09T03:21:14;14.50;99.90
50162;DHT22;36061;48.116;11.612;2023-10-09T03:23:44;14.50;99.90
50162;DHT22;36061;48.116;11.612;2023-10-09T03:26:16;14.50;99.90
50162;DHT22;36061;48.116;11.612;2023-10-09T03:28:45;14.50;99.90
50162;DHT22;36061;48.116;11.612;2023-10-09T03:31:13;14.50;99.90
50162;DHT22;36061;48.116;11.612;2023-10-09T03:33:40;14.60;99.90
50162;DHT22;36061;48.116;11.612;2023-10-09T03:36:08;14.60;99.90
50162;DHT22;36061;48.116;11.612;2023-10-09T03:38:36;14.60;99.90
50162;DHT22;36061;48.116;11.612;2023-10-09T03:41:05;14.60;99.90
50162;DHT22;36061;48.116;11.612;2023-10-09T03:43:36;14.50;99.90
50162;DHT22;36061;48.116;11.612;2023-10-09T03:46:04;14.60;99.90
50162;DHT22;36061;48.116;11.612;2023-10-09T03:48:41;14.60;99.90
50162;DHT22;36061;48.116;11.612;2023-10-09T03:51:09;14.60;99.90
50162;DHT22;36061;48.116;11.612;2023-10-09T03:53:38;14.60;99.90
50162;DHT22;36061;48.116;11.612;2023-10-09T03:56:07;14.60;99.90
50162;DHT22;36061;48.116;11.612;2023-10-09T03:58:40;14.60;99.90
50162;DHT22;36061;48.116;11.612;2023-10-09T04:01:09;14.60;99.90
50162;DHT22;36061;48.116;11.612;2023-10-09T04:03:44;14.60;99.90
50162;DHT22;36061;48.116;11.612;2023-10-09T04:06:11;14.60;99.90
50162;DHT22;36061;48.116;11.612;2023-10-09T04:08:38;14.60;99.90
50162;DHT22;36061;48.116;11.612;2023-10-09T04:11:17;14.60;99.90
50162;DHT22;36061;48.116;11.612;2023-10-09T04:13:50;14.60;99.90
50162;DHT22;36061;48.116;11.612;2023-10-09T04:16:18;14.50;99.90
50162;DHT22;36061;48.116;11.612;2023-10-09T04:19:17;14.50;99.90
50162;DHT22;36061;48.116;11.612;2023-10-09T04:21:47;14.50;99.90
50162;DHT22;36061;48.116;11.612;2023-10-09T04:24:14;14.50;99.90
50162;DHT22;36061;48.116;11.612;2023-10-09T04:26:50;14.50;99.90
50162;DHT22;36061;48.116;11.612;2023-10-09T04:29:23;14.50;99.90
50162;DHT22;36061;48.116;11.612;2023-10-09T04:31:53;14.50;99.90
50162;DHT22;36061;48.116;11.612;2023-10-09T04:34:22;14.50;99.90
50162;DHT22;36061;48.116;11.612;2023-10-09T04:36:55;14.50;99.90
50162;DHT22;36061;48.116;11.612;2023-10-09T04:39:26;14.50;99.90
50162;DHT22;36061;48.116;11.612;2023-10-09T04:42:13;14.40;99.90
50162;DHT22;36061;48.116;11.612;2023-10-09T04:44:53;14.40;99.90
50162;DHT22;36061;48.116;11.612;2023-10-09T04:47:45;14.40;99.90
50162;DHT22;36061;48.116;11.612;2023-10-09T04:50:32;14.40;99.90
50162;DHT22;36061;48.116;11.612;2023-10-09T04:53:34;14.40;99.90
50162;DHT22;36061;48.116;11.612;2023-10-09T04:56:09;14.40;99.90
50162;DHT22;36061;48.116;11.612;2023-10-09T04:58:41;14.30;99.90
50162;DHT22;36061;48.116;11.612;2023-10-09T05:01:11;14.30;99.90
50162;DHT22;36061;48.116;11.612;2023-10-09T05:04:02;14.30;99.90
50162;DHT22;36061;48.116;11.612;2023-10-09T05:06:41;14.30;99.90
50162;DHT22;36061;48.116;11.612;2023-10-09T05:09:21;14.30;99.90
50162;DHT22;36061;48.116;11.612;2023-10-09T05:11:48;14.30;99.90
50162;DHT22;36061;48.116;11.612;2023-10-09T05:14:35;14.30;99.90
50162;DHT22;36061;48.116;11.612;2023-10-09T05:17:07;14.30;99.90
50162;DHT22;36061;48.116;11.612;2023-10-09T05:19:42;14.30;99.90
50162;DHT22;36061;48.116;11.612;2023-10-09T05:22:21;14.30;99.90
50162;DHT22;36061;48.116;11.612;2023-10-09T05:25:02;14.30;99.90
50162;DHT22;36061;48.116;11.612;2023-10-09T05:27:42;14.30;99.90
50162;DHT22;36061;48.116;11.612;2023-10-09T05:30:16;14.30;99.90
50162;DHT22;36061;48.116;11.612;2023-10-09T05:32:54;14.30;99.90
50162;DHT22;36061;48.116;11.612;2023-10-09T05:35:35;14.30;99.90
50162;DHT22;36061;48.116;11.612;2023-10-09T05:38:28;14.30;99.90
50162;DHT22;36061;48.116;11.612;2023-10-09T05:40:56;14.30;99.90
50162;DHT22;36061;48.116;11.612;2023-10-09T05:43:44;14.40;99.90
50162;DHT22;36061;48.116;11.612;2023-10-09T05:46:28;14.70;99.90
50162;DHT22;36061;48.116;11.612;2023-10-09T05:49:03;15.00;99.90
50162;DHT22;36061;48.116;11.612;2023-10-09T05:51:36;15.10;99.90
50162;DHT22;36061;48.116;11.612;2023-10-09T05:54:09;15.30;99.90
50162;DHT22;36061;48.116;11.612;2023-10-09T05:56:50;15.50;99.90
50162;DHT22;36061;48.116;11.612;2023-10-09T05:59:34;15.60;99.90
50162;DHT22;36061;48.116;11.612;2023-10-09T06:02:24;15.70;99.90
50162;DHT22;36061;48.116;11.612;2023-10-09T06:05:10;15.70;99.90
50162;DHT22;36061;48.116;11.612;2023-10-09T06:08:06;15.50;99.90
50162;DHT22;36061;48.116;11.612;2023-10-09T06:10:34;15.40;99.90
50162;DHT22;36061;48.116;11.612;2023-10-09T06:13:08;15.30;99.90
50162;DHT22;36061;48.116;11.612;2023-10-09T06:15:57;15.20;99.90
50162;DHT22;36061;48.116;11.612;2023-10-09T06:18:46;15.00;99.90
50162;DHT22;36061;48.116;11.612;2023-10-09T06:21:35;15.00;99.90
50162;DHT22;36061;48.116;11.612;2023-10-09T06:24:16;15.00;99.90
50162;DHT22;36061;48.116;11.612;2023-10-09T06:26:44;15.10;99.90
50162;DHT22;36061;48.116;11.612;2023-10-09T06:29:38;15.20;99.90
50162;DHT22;36061;48.116;11.612;2023-10-09T06:32:17;15.40;99.90
50162;DHT22;36061;48.116;11.612;2023-10-09T06:35:01;15.50;99.90
50162;DHT22;36061;48.116;11.612;2023-10-09T06:37:46;15.50;99.90
50162;DHT22;36061;48.116;11.612;2023-10-09T06:40:39;15.60;99.90
50162;DHT22;36061;48.116;11.612;2023-10-09T06:43:24;15.60;99.90
50162;DHT22;36061;48.116;11.612;2023-10-09T06:45:56;15.60;99.90
50162;DHT22;36061;48.116;11.612;2023-10-09T06:48:45;15.60;99.90
50162;DHT22;36061;48.116;11.612;2023-10-09T06:51:22;15.60;99.90
50162;DHT22;36061;48.116;11.612;2023-10-09T06:54:08;15.60;99.90
50162;DHT22;36061;48.116;11.612;2023-10-09T06:56:35;15.80;99.90
50162;DHT22;36061;48.116;11.612;2023-10-09T06:59:16;15.70;99.90
50162;DHT22;36061;48.116;11.612;2023-10-09T07:01:48;15.70;99.90
50162;DHT22;36061;48.116;11.612;2023-10-09T07:04:36;15.80;99.90
50162;DHT22;36061;48.116;11.612;2023-10-09T07:07:12;15.80;99.90
50162;DHT22;36061;48.116;11.612;2023-10-09T07:09:44;15.90;99.90
50162;DHT22;36061;48.116;11.612;2023-10-09T07:12:32;15.80;99.90
50162;DHT22;36061;48.116;11.612;2023-10-09T07:15:00;15.90;99.90
50162;DHT22;36061;48.116;11.612;2023-10-09T07:17:47;15.90;99.90
50162;DHT22;36061;48.116;11.612;2023-10-09T07:20:13;16.00;99.90
50162;DHT22;36061;48.116;11.612;2023-10-09T07:22:41;16.00;99.90
50162;DHT22;36061;48.116;11.612;2023-10-09T07:25:23;16.10;99.90
50162;DHT22;36061;48.116;11.612;2023-10-09T07:28:05;16.10;99.90
50162;DHT22;36061;48.116;11.612;2023-10-09T07:30:44;16.10;99.90
50162;DHT22;36061;48.116;11.612;2023-10-09T07:33:12;16.20;99.90
50162;DHT22;36061;48.116;11.612;2023-10-09T07:35:56;16.30;99.90
50162;DHT22;36061;48.116;11.612;2023-10-09T07:38:25;16.30;99.90
50162;DHT22;36061;48.116;11.612;2023-10-09T07:40:56;16.40;99.90
50162;DHT22;36061;48.116;11.612;2023-10-09T07:43:46;16.50;99.90
50162;DHT22;36061;48.116;11.612;2023-10-09T07:46:18;16.70;99.90
50162;DHT22;36061;48.116;11.612;2023-10-09T07:49:00;16.80;99.90
50162;DHT22;36061;48.116;11.612;2023-10-09T07:51:35;17.10;99.90
50162;DHT22;36061;48.116;11.612;2023-10-09T07:54:03;17.40;99.90
50162;DHT22;36061;48.116;11.612;2023-10-09T07:56:35;17.70;99.90
50162;DHT22;36061;48.116;11.612;2023-10-09T07:59:07;17.80;99.90
50162;DHT22;36061;48.116;11.612;2023-10-09T08:01:37;18.10;99.90
50162;DHT22;36061;48.116;11.612;2023-10-09T08:04:05;18.20;99.90
50162;DHT22;36061;48.116;11.612;2023-10-09T08:06:37;18.40;99.90
50162;DHT22;36061;48.116;11.612;2023-10-09T08:09:09;18.40;99.90
50162;DHT22;36061;48.116;11.612;2023-10-09T08:12:06;18.60;99.90
50162;DHT22;36061;48.116;11.612;2023-10-09T08:15:07;18.70;99.90
50162;DHT22;36061;48.116;11.612;2023-10-09T08:17:48;18.80;99.90
50162;DHT22;36061;48.116;11.612;2023-10-09T08:20:21;18.90;99.90
50162;DHT22;36061;48.116;11.612;2023-10-09T08:22:52;18.90;99.90
50162;DHT22;36061;48.116;11.612;2023-10-09T08:25:21;19.00;99.90
50162;DHT22;36061;48.116;11.612;2023-10-09T08:28:01;19.00;99.90
50162;DHT22;36061;48.116;11.612;2023-10-09T08:30:42;19.10;99.90
50162;DHT22;36061;48.116;11.612;2023-10-09T08:33:15;19.10;99.90
50162;DHT22;36061;48.116;11.612;2023-10-09T08:36:00;19.20;99.90
50162;DHT22;36061;48.116;11.612;2023-10-09T08:38:31;19.20;99.90
50162;DHT22;36061;48.116;11.612;2023-10-09T08:41:10;19.30;99.90
50162;DHT22;36061;48.116;11.612;2023-10-09T08:43:50;19.40;99.90
50162;DHT22;36061;48.116;11.612;2023-10-09T08:46:22;19.50;99.90
50162;DHT22;36061;48.116;11.612;2023-10-09T08:48:50;19.60;99.90
50162;DHT22;36061;48.116;11.612;2023-10-09T08:51:18;19.70;99.90
50162;DHT22;36061;48.116;11.612;2023-10-09T08:53:46;19.80;99.90
50162;DHT22;36061;48.116;11.612;2023-10-09T08:56:13;19.80;99.90
50162;DHT22;36061;48.116;11.612;2023-10-09T08:58:50;19.90;99.90
50162;DHT22;36061;48.116;11.612;2023-10-09T09:01:19;19.90;99.90
50162;DHT22;36061;48.116;11.612;2023-10-09T09:03:48;19.90;99.90
50162;DHT22;36061;48.116;11.612;2023-10-09T09:06:17;20.00;99.90
50162;DHT22;36061;48.116;11.612;2023-10-09T09:08:46;20.00;99.90
50162;DHT22;36061;48.116;11.612;2023-10-09T09:11:14;20.00;99.90
50162;DHT22;36061;48.116;11.612;2023-10-09T09:13:44;20.00;99.90
50162;DHT22;36061;48.116;11.612;2023-10-09T09:16:20;20.00;99.90
50162;DHT22;36061;48.116;11.612;2023-10-09T09:18:52;20.10;99.90
50162;DHT22;36061;48.116;11.612;2023-10-09T09:21:27;20.10;99.90
50162;DHT22;36061;48.116;11.612;2023-10-09T09:23:56;20.10;99.90
50162;DHT22;36061;48.116;11.612;2023-10-09T09:26:36;20.20;99.90
50162;DHT22;36061;48.116;11.612;2023-10-09T09:29:07;20.20;99.90
50162;DHT22;36061;48.116;11.612;2023-10-09T09:31:35;20.30;99.90
50162;DHT22;36061;48.116;11.612;2023-10-09T09:34:05;20.30;99.90
50162;DHT22;36061;48.116;11.612;2023-10-09T09:36:53;20.40;99.90
50162;DHT22;36061;48.116;11.612;2023-10-09T09:39:22;20.40;99.90
50162;DHT22;36061;48.116;11.612;2023-10-09T09:41:57;20.40;99.10
50162;DHT22;36061;48.116;11.612;2023-10-09T09:44:33;20.50;99.10
50162;DHT22;36061;48.116;11.612;2023-10-09T09:47:12;20.50;99.20
50162;DHT22;36061;48.116;11.612;2023-10-09T09:49:50;20.60;98.70
50162;DHT22;36061;48.116;11.612;2023-10-09T09:52:28;20.60;98.70
50162;DHT22;36061;48.116;11.612;2023-10-09T09:54:55;20.70;99.10
50162;DHT22;36061;48.116;11.612;2023-10-09T09:57:24;20.70;99.00
50162;DHT22;36061;48.116;11.612;2023-10-09T09:59:54;20.70;98.50
50162;DHT22;36061;48.116;11.612;2023-10-09T10:02:30;20.70;98.10
50162;DHT22;36061;48.116;11.612;2023-10-09T10:05:02;20.80;98.10
50162;DHT22;36061;48.116;11.612;2023-10-09T10:07:33;20.80;98.30
50162;DHT22;36061;48.116;11.612;2023-10-09T10:10:34;20.80;98.20
50162;DHT22;36061;48.116;11.612;2023-10-09T10:13:05;20.80;97.80
50162;DHT22;36061;48.116;11.612;2023-10-09T10:15:59;20.90;97.80
50162;DHT22;36061;48.116;11.612;2023-10-09T10:18:53;20.90;97.70
50162;DHT22;36061;48.116;11.612;2023-10-09T10:21:26;20.90;96.90
50162;DHT22;36061;48.116;11.612;2023-10-09T10:27:19;21.10;96.30
50162;DHT22;36061;48.116;11.612;2023-10-09T10:30:29;21.10;96.10
50162;DHT22;36061;48.116;11.612;2023-10-09T10:33:02;21.20;96.10
50162;DHT22;36061;48.116;11.612;2023-10-09T10:35:41;21.20;96.10
50162;DHT22;36061;48.116;11.612;2023-10-09T10:38:25;21.30;95.60
50162;DHT22;36061;48.116;11.612;2023-10-09T10:41:14;21.40;95.20
50162;DHT22;36061;48.116;11.612;2023-10-09T10:43:45;21.40;94.90
50162;DHT22;36061;48.116;11.612;2023-10-09T10:46:25;21.40;94.70
50162;DHT22;36061;48.116;11.612;2023-10-09T10:49:05;21.50;94.50
50162;DHT22;36061;48.116;11.612;2023-10-09T10:51:43;21.50;94.20
50162;DHT22;36061;48.116;11.612;2023-10-09T10:54:27;21.50;94.30
50162;DHT22;36061;48.116;11.612;2023-10-09T10:57:17;21.60;93.70
50162;DHT22;36061;48.116;11.612;2023-10-09T10:59:57;21.60;93.70
50162;DHT22;36061;48.116;11.612;2023-10-09T11:02:43;21.50;93.40
50162;DHT22;36061;48.116;11.612;2023-10-09T11:05:10;21.50;93.70
50162;DHT22;36061;48.116;11.612;2023-10-09T11:07:57;21.50;93.40
50162;DHT22;36061;48.116;11.612;2023-10-09T11:10:26;21.60;93.10
50162;DHT22;36061;48.116;11.612;2023-10-09T11:12:57;21.70;93.00
50162;DHT22;36061;48.116;11.612;2023-10-09T11:15:41;21.60;92.80
50162;DHT22;36061;48.116;11.612;2023-10-09T11:18:14;21.70;92.80
50162;DHT22;36061;48.116;11.612;2023-10-09T11:20:48;21.60;92.90
50162;DHT22;36061;48.116;11.612;2023-10-09T11:23:24;21.70;93.00
50162;DHT22;36061;48.116;11.612;2023-10-09T11:26:04;21.70;93.20
50162;DHT22;36061;48.116;11.612;2023-10-09T11:28:47;21.70;92.90
50162;DHT22;36061;48.116;11.612;2023-10-09T11:31:39;21.80;93.00
50162;DHT22;36061;48.116;11.612;2023-10-09T11:34:18;22.00;92.50
50162;DHT22;36061;48.116;11.612;2023-10-09T11:36:56;22.10;92.50
50162;DHT22;36061;48.116;11.612;2023-10-09T11:39:27;22.30;91.70
50162;DHT22;36061;48.116;11.612;2023-10-09T11:42:19;22.30;91.90
50162;DHT22;36061;48.116;11.612;2023-10-09T11:45:02;22.30;91.10
50162;DHT22;36061;48.116;11.612;2023-10-09T11:47:46;22.40;90.70
50162;DHT22;36061;48.116;11.612;2023-10-09T11:50:42;22.40;90.20
50162;DHT22;36061;48.116;11.612;2023-10-09T11:53:15;22.40;90.60
50162;DHT22;36061;48.116;11.612;2023-10-09T11:56:00;22.40;90.50
50162;DHT22;36061;48.116;11.612;2023-10-09T11:58:27;22.40;90.70
50162;DHT22;36061;48.116;11.612;2023-10-09T12:00:55;22.40;90.70
50162;DHT22;36061;48.116;11.612;2023-10-09T12:03:25;22.40;90.60
50162;DHT22;36061;48.116;11.612;2023-10-09T12:05:56;22.40;87.30
50162;DHT22;36061;48.116;11.612;2023-10-09T12:08:24;22.40;87.20
50162;DHT22;36061;48.116;11.612;2023-10-09T12:10:56;22.30;88.50
50162;DHT22;36061;48.116;11.612;2023-10-09T12:13:25;22.40;87.10
50162;DHT22;36061;48.116;11.612;2023-10-09T12:15:53;22.40;87.30
50162;DHT22;36061;48.116;11.612;2023-10-09T12:18:21;22.30;87.90
50162;DHT22;36061;48.116;11.612;2023-10-09T12:20:49;22.30;88.20
50162;DHT22;36061;48.116;11.612;2023-10-09T12:23:18;22.30;87.70
50162;DHT22;36061;48.116;11.612;2023-10-09T12:25:48;22.20;88.00
50162;DHT22;36061;48.116;11.612;2023-10-09T12:28:16;22.20;88.20
50162;DHT22;36061;48.116;11.612;2023-10-09T12:30:47;22.20;87.90
50162;DHT22;36061;48.116;11.612;2023-10-09T12:33:17;22.20;87.90
50162;DHT22;36061;48.116;11.612;2023-10-09T12:35:45;22.10;88.50
50162;DHT22;36061;48.116;11.612;2023-10-09T12:38:13;22.10;89.30
50162;DHT22;36061;48.116;11.612;2023-10-09T12:40:44;22.10;90.00
50162;DHT22;36061;48.116;11.612;2023-10-09T12:43:17;22.00;87.50
50162;DHT22;36061;48.116;11.612;2023-10-09T12:45:47;22.00;87.70
50162;DHT22;36061;48.116;11.612;2023-10-09T12:48:14;21.90;88.00
50162;DHT22;36061;48.116;11.612;2023-10-09T12:50:41;21.90;87.10
50162;DHT22;36061;48.116;11.612;2023-10-09T12:53:10;21.80;87.70
50162;DHT22;36061;48.116;11.612;2023-10-09T12:55:43;21.80;86.70
50162;DHT22;36061;48.116;11.612;2023-10-09T12:58:11;21.70;86.80
50162;DHT22;36061;48.116;11.612;2023-10-09T13:00:42;21.60;87.40
50162;DHT22;36061;48.116;11.612;2023-10-09T13:03:17;21.60;88.10
50162;DHT22;36061;48.116;11.612;2023-10-09T13:05:48;21.50;88.80
50162;DHT22;36061;48.116;11.612;2023-10-09T13:08:23;21.50;89.10
50162;DHT22;36061;48.116;11.612;2023-10-09T13:11:01;21.50;89.90
50162;DHT22;36061;48.116;11.612;2023-10-09T13:13:34;21.40;89.80
50162;DHT22;36061;48.116;11.612;2023-10-09T13:16:09;21.40;90.10
50162;DHT22;36061;48.116;11.612;2023-10-09T13:18:43;21.30;90.30
50162;DHT22;36061;48.116;11.612;2023-10-09T13:21:16;21.30;90.40
50162;DHT22;36061;48.116;11.612;2023-10-09T13:23:43;21.30;90.50
50162;DHT22;36061;48.116;11.612;2023-10-09T13:26:13;21.30;90.30
50162;DHT22;36061;48.116;11.612;2023-10-09T13:28:50;21.30;90.40
50162;DHT22;36061;48.116;11.612;2023-10-09T13:31:19;21.30;90.60
50162;DHT22;36061;48.116;11.612;2023-10-09T13:33:48;21.30;90.90
50162;DHT22;36061;48.116;11.612;2023-10-09T13:36:20;21.30;90.90
50162;DHT22;36061;48.116;11.612;2023-10-09T13:38:54;21.30;91.10
50162;DHT22;36061;48.116;11.612;2023-10-09T13:41:22;21.20;91.20
50162;DHT22;36061;48.116;11.612;2023-10-09T13:43:51;21.20;91.10
50162;DHT22;36061;48.116;11.612;2023-10-09T13:46:19;21.20;91.20
50162;DHT22;36061;48.116;11.612;2023-10-09T13:48:47;21.10;91.30
50162;DHT22;36061;48.116;11.612;2023-10-09T13:51:15;21.10;91.30
50162;DHT22;36061;48.116;11.612;2023-10-09T13:53:44;21.10;91.20
50162;DHT22;36061;48.116;11.612;2023-10-09T13:56:12;21.00;91.30
50162;DHT22;36061;48.116;11.612;2023-10-09T13:58:45;21.00;91.40
50162;DHT22;36061;48.116;11.612;2023-10-09T14:01:13;21.00;91.60
50162;DHT22;36061;48.116;11.612;2023-10-09T14:03:58;20.90;92.60
50162;DHT22;36061;48.116;11.612;2023-10-09T14:06:27;20.90;94.20
50162;DHT22;36061;48.116;11.612;2023-10-09T14:08:58;20.80;95.00
50162;DHT22;36061;48.116;11.612;2023-10-09T14:11:26;20.60;95.20
50162;DHT22;36061;48.116;11.612;2023-10-09T14:13:53;20.50;96.80
50162;DHT22;36061;48.116;11.612;2023-10-09T14:16:21;20.30;97.00
50162;DHT22;36061;48.116;11.612;2023-10-09T14:18:54;20.20;98.20
50162;DHT22;36061;48.116;11.612;2023-10-09T14:21:25;20.10;99.10
50162;DHT22;36061;48.116;11.612;2023-10-09T14:23:56;20.00;99.60
50162;DHT22;36061;48.116;11.612;2023-10-09T14:26:27;19.90;99.90
50162;DHT22;36061;48.116;11.612;2023-10-09T14:28:55;19.80;99.90
50162;DHT22;36061;48.116;11.612;2023-10-09T14:31:24;19.70;99.90
50162;DHT22;36061;48.116;11.612;2023-10-09T14:33:55;19.70;99.90
50162;DHT22;36061;48.116;11.612;2023-10-09T14:36:24;19.70;99.90
50162;DHT22;36061;48.116;11.612;2023-10-09T14:38:59;19.70;99.90
50162;DHT22;36061;48.116;11.612;2023-10-09T14:41:27;19.70;99.90
50162;DHT22;36061;48.116;11.612;2023-10-09T14:43:59;19.60;99.90
50162;DHT22;36061;48.116;11.612;2023-10-09T14:46:26;19.60;99.90
50162;DHT22;36061;48.116;11.612;2023-10-09T14:48:55;19.60;99.90
50162;DHT22;36061;48.116;11.612;2023-10-09T14:51:23;19.60;99.90
50162;DHT22;36061;48.116;11.612;2023-10-09T14:53:56;19.60;99.90
50162;DHT22;36061;48.116;11.612;2023-10-09T14:56:28;19.60;99.90
50162;DHT22;36061;48.116;11.612;2023-10-09T14:59:00;19.60;99.90
50162;DHT22;36061;48.116;11.612;2023-10-09T15:01:29;19.60;99.90
50162;DHT22;36061;48.116;11.612;2023-10-09T15:03:58;19.50;99.90
50162;DHT22;36061;48.116;11.612;2023-10-09T15:06:26;19.50;99.90
50162;DHT22;36061;48.116;11.612;2023-10-09T15:08:57;19.50;99.90
50162;DHT22;36061;48.116;11.612;2023-10-09T15:11:26;19.50;99.90
50162;DHT22;36061;48.116;11.612;2023-10-09T15:13:55;19.50;99.90
50162;DHT22;36061;48.116;11.612;2023-10-09T15:16:24;19.50;99.90
50162;DHT22;36061;48.116;11.612;2023-10-09T15:18:54;19.50;99.90
50162;DHT22;36061;48.116;11.612;2023-10-09T15:21:29;19.50;99.90
50162;DHT22;36061;48.116;11.612;2023-10-09T15:24:00;19.50;99.90
50162;DHT22;36061;48.116;11.612;2023-10-09T15:26:27;19.50;99.90
50162;DHT22;36061;48.116;11.612;2023-10-09T15:29:01;19.50;99.90
50162;DHT22;36061;48.116;11.612;2023-10-09T15:31:32;19.50;99.90
50162;DHT22;36061;48.116;11.612;2023-10-09T15:34:00;19.50;99.90
50162;DHT22;36061;48.116;11.612;2023-10-09T15:36:27;19.50;99.90
50162;DHT22;36061;48.116;11.612;2023-10-09T15:38:59;19.40;99.90
50162;DHT22;36061;48.116;11.612;2023-10-09T15:41:28;19.40;99.90
50162;DHT22;36061;48.116;11.612;2023-10-09T15:43:57;19.40;99.90
50162;DHT22;36061;48.116;11.612;2023-10-09T15:46:25;19.40;99.90
50162;DHT22;36061;48.116;11.612;2023-10-09T15:48:53;19.40;99.90
50162;DHT22;36061;48.116;11.612;2023-10-09T15:51:22;19.30;99.90
50162;DHT22;36061;48.116;11.612;2023-10-09T15:53:49;19.30;99.90
50162;DHT22;36061;48.116;11.612;2023-10-09T15:56:18;19.30;99.90
50162;DHT22;36061;48.116;11.612;2023-10-09T15:58:46;19.20;99.90
50162;DHT22;36061;48.116;11.612;2023-10-09T16:01:15;19.20;99.90
50162;DHT22;36061;48.116;11.612;2023-10-09T16:03:46;19.20;99.90